Time;durP1;ratioP1;P1;durP2;ratioP2;P2;SDS_P1;SDS_P2;PMS_P1;PMS_P2;Temp;Humidity;BMP_temperature;BMP_pressure;BME280_temperature;BME280_humidity;BME280_pressure;Samples;Min_cycle;Max_cycle;Signal;HPM_P1;HPM_P2
2022/01/11 00:02:15;;;;;;;17.70;8.37;;;-2.40;99.90;;;;;;5075216;28;20205;-89
2022/01/11 00:04:41;;;;;;;13.40;8.60;;;-2.30;99.90;;;;;;5057137;28;20208;-87
2022/01/11 00:07:11;;;;;;;21.60;10.93;;;-2.20;99.90;;;;;;5057193;28;20801;-88
2022/01/11 00:09:41;;;;;;;16.47;9.70;;;-2.10;99.90;;;;;;5057191;28;20187;-88
2022/01/11 00:12:10;;;;;;;34.27;10.67;;;-2.00;99.90;;;;;;5057439;28;20426;-89
2022/01/11 00:14:36;;;;;;;13.13;6.50;;;-2.00;99.90;;;;;;5056780;28;21146;-89
2022/01/11 00:17:02;;;;;;;8.40;5.17;;;-1.90;99.90;;;;;;5056924;28;20409;-87
2022/01/11 00:19:32;;;;;;;20.10;7.63;;;-1.80;99.90;;;;;;5057486;28;20944;-88
2022/01/11 00:22:00;;;;;;;16.77;8.37;;;-1.80;99.90;;;;;;5056751;28;20705;-88
2022/01/11 00:24:29;;;;;;;26.03;9.13;;;-1.80;99.90;;;;;;5056803;28;20426;-89
2022/01/11 00:27:03;;;;;;;21.03;9.10;;;-1.70;99.90;;;;;;5056870;28;20424;-88
2022/01/11 00:29:32;;;;;;;25.63;8.07;;;-1.70;99.90;;;;;;5057081;28;20432;-88
2022/01/11 00:32:03;;;;;;;14.47;8.33;;;-1.70;99.90;;;;;;5057349;28;20449;-88
2022/01/11 00:34:39;;;;;;;16.10;8.17;;;-1.70;99.90;;;;;;5056751;28;20459;-88
2022/01/11 00:37:05;;;;;;;18.53;8.50;;;-1.70;99.90;;;;;;5056558;28;20398;-87
2022/01/11 00:39:32;;;;;;;19.17;8.47;;;-1.70;99.90;;;;;;5056758;28;20410;-87
2022/01/11 00:41:57;;;;;;;19.10;8.77;;;-1.70;99.90;;;;;;5056537;28;20414;-88
2022/01/11 00:44:23;;;;;;;18.97;9.43;;;-1.70;99.90;;;;;;5056343;28;20476;-89
2022/01/11 00:46:49;;;;;;;13.97;7.97;;;-1.70;99.90;;;;;;5056675;28;20191;-90
2022/01/11 00:49:16;;;;;;;30.60;11.17;;;-1.70;99.90;;;;;;5055835;28;20196;-88
2022/01/11 00:51:42;;;;;;;28.00;10.93;;;-1.60;99.90;;;;;;5056903;28;20222;-90
2022/01/11 00:54:07;;;;;;;22.67;10.77;;;-1.60;99.90;;;;;;5056620;28;20568;-88
2022/01/11 00:56:33;;;;;;;22.80;9.83;;;-1.50;99.90;;;;;;5056055;28;20300;-88
2022/01/11 00:58:59;;;;;;;18.13;9.73;;;-1.50;99.90;;;;;;5056416;28;20194;-90
2022/01/11 01:01:27;;;;;;;23.63;9.83;;;-1.50;99.90;;;;;;5056295;28;20274;-88
2022/01/11 01:03:53;;;;;;;19.50;9.10;;;-1.50;99.90;;;;;;5056036;28;20180;-88
2022/01/11 01:06:18;;;;;;;21.07;9.17;;;-1.50;99.90;;;;;;5056190;28;20460;-88
2022/01/11 01:08:44;;;;;;;36.43;10.70;;;-1.50;99.90;;;;;;5056238;28;20790;-88
2022/01/11 01:11:10;;;;;;;19.00;8.43;;;-1.50;99.90;;;;;;5056002;28;20184;-88
2022/01/11 01:13:35;;;;;;;20.47;8.77;;;-1.50;99.90;;;;;;5074346;28;20231;-89
2022/01/11 01:16:01;;;;;;;23.97;10.87;;;-1.40;99.90;;;;;;5056090;28;20675;-88
2022/01/11 01:18:29;;;;;;;31.87;10.20;;;-1.40;99.90;;;;;;5056400;28;20232;-87
2022/01/11 01:20:55;;;;;;;36.73;11.53;;;-1.40;99.90;;;;;;5056611;28;20179;-91
2022/01/11 01:23:22;;;;;;;27.60;9.67;;;-1.40;99.90;;;;;;5056163;28;20517;-88
2022/01/11 01:25:49;;;;;;;30.13;9.87;;;-1.40;99.90;;;;;;5055970;28;20441;-89
2022/01/11 01:28:15;;;;;;;20.93;9.07;;;-1.40;99.90;;;;;;5056152;28;20432;-88
2022/01/11 01:30:41;;;;;;;25.93;8.57;;;-1.40;99.90;;;;;;5056008;28;20420;-88
2022/01/11 01:33:07;;;;;;;23.90;8.50;;;-1.30;99.90;;;;;;5055720;28;20526;-88
2022/01/11 01:35:39;;;;;;;14.43;7.53;;;-1.30;99.90;;;;;;5055556;28;20690;-89
2022/01/11 01:38:06;;;;;;;25.70;9.73;;;-1.30;99.90;;;;;;5055922;28;20174;-89
2022/01/11 01:40:41;;;;;;;35.27;9.17;;;-1.30;99.90;;;;;;5055989;28;20509;-89
2022/01/11 01:43:09;;;;;;;30.33;9.07;;;-1.30;99.90;;;;;;5056287;28;20417;-89
2022/01/11 01:45:35;;;;;;;36.27;9.03;;;-1.30;99.90;;;;;;5055901;28;20457;-89
2022/01/11 01:48:02;;;;;;;33.43;8.90;;;-1.30;99.90;;;;;;5056177;28;20418;-88
2022/01/11 01:50:29;;;;;;;29.30;8.37;;;-1.30;99.90;;;;;;5073866;28;20425;-88
2022/01/11 01:52:57;;;;;;;31.77;9.27;;;-1.30;99.90;;;;;;5055575;28;20422;-88
2022/01/11 01:55:24;;;;;;;35.97;8.97;;;-1.30;99.90;;;;;;5055216;28;20456;-89
2022/01/11 01:57:50;;;;;;;35.40;8.73;;;-1.20;99.90;;;;;;5055953;28;20424;-89
2022/01/11 02:00:17;;;;;;;25.73;8.23;;;-1.30;99.90;;;;;;5056413;28;20422;-88
2022/01/11 02:02:42;;;;;;;22.97;8.53;;;-1.20;99.90;;;;;;5059491;28;20420;-88
2022/01/11 02:05:08;;;;;;;21.60;6.50;;;-1.20;99.90;;;;;;5059484;28;20464;-88
2022/01/11 02:07:35;;;;;;;29.00;8.27;;;-1.20;99.90;;;;;;5059514;28;20237;-87
2022/01/11 02:10:01;;;;;;;44.27;9.30;;;-1.20;99.90;;;;;;5059350;28;20187;-89
2022/01/11 02:12:28;;;;;;;20.93;7.33;;;-1.30;99.90;;;;;;5059554;28;20550;-89
2022/01/11 02:14:53;;;;;;;51.20;9.40;;;-1.20;99.90;;;;;;5059084;28;20522;-89
2022/01/11 02:17:19;;;;;;;39.00;8.07;;;-1.20;99.90;;;;;;5059354;28;20410;-88
2022/01/11 02:19:45;;;;;;;56.43;11.23;;;-1.20;99.90;;;;;;5059453;28;20259;-88
2022/01/11 02:22:11;;;;;;;42.97;7.63;;;-0.10;99.90;;;;;;5059893;28;20624;-89
2022/01/11 02:24:36;;;;;;;12.93;5.03;;;-1.20;99.90;;;;;;5059388;28;20286;-90
2022/01/11 02:27:02;;;;;;;22.13;7.17;;;-1.20;99.90;;;;;;5059251;28;20210;-90
2022/01/11 02:29:28;;;;;;;24.80;7.33;;;-1.20;99.90;;;;;;5058970;28;20701;-89
2022/01/11 02:31:54;;;;;;;34.87;9.47;;;-1.20;99.90;;;;;;5059216;28;20286;-90
2022/01/11 02:34:19;;;;;;;43.20;7.87;;;-1.20;99.90;;;;;;5058895;28;20211;-89
2022/01/11 02:36:45;;;;;;;39.53;8.50;;;-1.20;99.90;;;;;;5058942;28;20199;-90
2022/01/11 02:39:11;;;;;;;42.43;8.30;;;-1.20;99.90;;;;;;5059268;28;20183;-90
2022/01/11 02:41:49;;;;;;;40.77;7.13;;;-1.10;99.90;;;;;;5059318;28;20195;-88
2022/01/11 02:44:15;;;;;;;26.30;7.10;;;-1.20;99.90;;;;;;5058722;28;20203;-90
2022/01/11 02:46:40;;;;;;;40.77;9.03;;;-1.20;99.90;;;;;;5058888;28;20425;-89
2022/01/11 02:49:06;;;;;;;42.83;8.47;;;-1.20;99.90;;;;;;5058947;28;20210;-89
2022/01/11 02:51:31;;;;;;;30.37;7.57;;;-1.20;99.90;;;;;;5059083;28;20183;-89
2022/01/11 02:53:59;;;;;;;48.23;8.57;;;-1.20;99.90;;;;;;5058690;28;20203;-89
2022/01/11 02:56:25;;;;;;;15.53;6.90;;;-1.20;99.90;;;;;;5058762;28;20203;-89
2022/01/11 02:58:51;;;;;;;32.90;8.50;;;-1.20;99.90;;;;;;5059313;28;20422;-87
2022/01/11 03:01:17;;;;;;;30.73;8.40;;;-1.10;99.90;;;;;;5058407;28;20671;-89
2022/01/11 03:03:42;;;;;;;56.77;9.23;;;-1.10;99.90;;;;;;5063306;28;20577;-90
2022/01/11 03:06:08;;;;;;;35.67;8.10;;;-1.10;99.90;;;;;;5065659;28;20203;-91
2022/01/11 03:08:43;;;;;;;25.50;8.20;;;-1.10;99.90;;;;;;5065623;28;20184;-92
2022/01/11 03:11:10;;;;;;;40.80;8.83;;;-1.10;99.90;;;;;;5066911;28;20416;-91
2022/01/11 03:13:38;;;;;;;10.07;5.37;;;-1.10;99.90;;;;;;5077552;28;20602;-88
2022/01/11 03:16:04;;;;;;;24.07;7.27;;;-1.10;99.90;;;;;;5058296;28;20441;-89
2022/01/11 03:18:31;;;;;;;27.77;8.77;;;-1.10;99.90;;;;;;5060179;28;20430;-92
2022/01/11 03:20:56;;;;;;;28.13;9.03;;;-1.10;99.90;;;;;;5065458;28;20402;-90
2022/01/11 03:23:22;;;;;;;9.67;5.03;;;-1.10;99.90;;;;;;5064808;28;20460;-92
2022/01/11 03:25:51;;;;;;;42.50;7.93;;;-1.10;99.90;;;;;;5064930;28;20294;-90
2022/01/11 03:28:18;;;;;;;38.33;9.23;;;-1.10;99.90;;;;;;5066954;28;20246;-91
2022/01/11 03:30:43;;;;;;;24.37;8.20;;;-1.10;99.90;;;;;;5068304;28;20420;-89
2022/01/11 03:33:09;;;;;;;27.20;7.80;;;-1.10;99.90;;;;;;5063526;28;20496;-89
2022/01/11 03:35:40;;;;;;;25.70;7.17;;;-1.10;99.90;;;;;;5058129;28;20200;-89
2022/01/11 03:38:07;;;;;;;14.50;7.03;;;-1.10;99.90;;;;;;5058074;28;20422;-89
2022/01/11 03:40:33;;;;;;;24.03;8.40;;;-1.10;99.90;;;;;;5058279;28;20452;-90
2022/01/11 03:42:59;;;;;;;20.80;8.57;;;-1.20;99.90;;;;;;5057833;28;20454;-88
2022/01/11 03:45:26;;;;;;;17.77;7.73;;;-1.10;99.90;;;;;;5058152;28;20706;-89
2022/01/11 03:47:54;;;;;;;22.07;7.77;;;-1.10;99.90;;;;;;5058079;28;20186;-88
2022/01/11 03:50:20;;;;;;;19.03;7.93;;;-1.10;99.90;;;;;;5058370;28;20414;-89
2022/01/11 03:52:46;;;;;;;44.23;10.27;;;-1.10;99.90;;;;;;5058307;28;20422;-88
2022/01/11 03:55:20;;;;;;;23.17;8.43;;;-1.10;99.90;;;;;;5057597;28;20830;-90
2022/01/11 03:57:47;;;;;;;19.87;8.47;;;-1.10;99.90;;;;;;5057912;28;20172;-86
2022/01/11 04:00:16;;;;;;;25.87;9.57;;;-1.20;99.90;;;;;;5058807;28;20418;-89
2022/01/11 04:02:43;;;;;;;21.40;8.20;;;-1.20;99.90;;;;;;5057625;28;20418;-89
2022/01/11 04:05:11;;;;;;;21.77;9.30;;;-1.20;99.90;;;;;;5057808;28;20445;-89
2022/01/11 04:07:37;;;;;;;21.07;9.43;;;-1.20;99.90;;;;;;5057894;28;20509;-89
2022/01/11 04:10:03;;;;;;;20.77;8.20;;;-1.20;99.90;;;;;;5057262;28;20457;-88
2022/01/11 04:12:29;;;;;;;23.40;9.40;;;-1.10;99.90;;;;;;5057364;28;20187;-89
2022/01/11 04:14:54;;;;;;;19.83;8.63;;;-0.60;99.90;;;;;;5057256;28;20480;-89
2022/01/11 04:17:20;;;;;;;23.83;9.10;;;-1.20;99.90;;;;;;5058371;28;20591;-88
2022/01/11 04:19:46;;;;;;;21.47;8.90;;;-1.20;99.90;;;;;;5057780;28;20187;-88
2022/01/11 04:22:12;;;;;;;26.03;8.73;;;-1.20;99.90;;;;;;5057492;28;20188;-89
2022/01/11 04:24:38;;;;;;;18.70;8.10;;;-1.20;99.90;;;;;;5056632;28;20207;-88
2022/01/11 04:27:04;;;;;;;19.23;8.27;;;-1.30;99.90;;;;;;5057486;28;20191;-89
2022/01/11 04:29:29;;;;;;;20.77;8.57;;;-1.30;99.90;;;;;;5057316;28;20425;-90
2022/01/11 04:31:55;;;;;;;33.77;7.47;;;-1.30;99.90;;;;;;5057692;28;20274;-89
2022/01/11 04:34:21;;;;;;;12.40;7.60;;;-1.30;99.90;;;;;;5057607;28;20203;-87
2022/01/11 04:36:46;;;;;;;27.93;8.13;;;-1.30;99.90;;;;;;5058541;28;20207;-89
2022/01/11 04:39:14;;;;;;;18.67;7.90;;;-1.30;99.90;;;;;;5076055;28;20178;-89
2022/01/11 04:41:40;;;;;;;35.80;8.80;;;-1.30;99.90;;;;;;5057783;28;20266;-89
2022/01/11 04:44:06;;;;;;;16.83;6.73;;;-1.30;99.90;;;;;;5057972;28;21124;-89
2022/01/11 04:46:39;;;;;;;27.47;8.40;;;-1.30;99.90;;;;;;5091409;28;20553;-42
2022/01/11 04:49:04;;;;;;;17.67;6.70;;;-1.30;99.90;;;;;;5091786;28;20443;-45
2022/01/11 04:51:30;;;;;;;25.07;7.23;;;-1.30;99.90;;;;;;5091417;28;20224;-43
2022/01/11 04:53:56;;;;;;;31.80;9.00;;;-1.30;99.90;;;;;;5091653;28;20225;-43
2022/01/11 04:56:23;;;;;;;14.40;6.73;;;-1.30;99.90;;;;;;5092312;28;20195;-44
2022/01/11 04:58:49;;;;;;;21.57;7.70;;;-1.30;99.90;;;;;;5092053;28;20458;-44
2022/01/11 05:01:15;;;;;;;24.60;7.83;;;-1.30;99.90;;;;;;5092207;28;20492;-45
2022/01/11 05:03:41;;;;;;;25.23;8.30;;;-1.30;99.90;;;;;;5091762;28;20463;-44
2022/01/11 05:06:06;;;;;;;25.70;6.87;;;-1.30;99.90;;;;;;5090908;28;20245;-44
2022/01/11 05:08:32;;;;;;;19.50;7.73;;;-1.30;99.90;;;;;;5091141;28;20182;-43
2022/01/11 05:10:58;;;;;;;22.73;7.77;;;-1.30;99.90;;;;;;5089766;28;20190;-45
2022/01/11 05:13:24;;;;;;;37.20;8.37;;;-1.30;99.90;;;;;;5090570;28;20727;-45
2022/01/11 05:15:50;;;;;;;25.47;8.17;;;-1.30;99.90;;;;;;5090880;28;20285;-42
2022/01/11 05:18:16;;;;;;;38.30;7.73;;;-1.30;99.90;;;;;;5090920;28;20179;-46
2022/01/11 05:20:42;;;;;;;28.40;7.90;;;-1.30;99.90;;;;;;5090800;28;20187;-43
2022/01/11 05:23:09;;;;;;;36.53;8.07;;;-1.30;99.90;;;;;;5090670;28;20486;-45
2022/01/11 05:25:36;;;;;;;22.87;9.77;;;-1.30;99.90;;;;;;5090130;28;20706;-46
2022/01/11 05:28:02;;;;;;;18.97;8.40;;;-1.30;99.90;;;;;;5090225;28;20424;-43
2022/01/11 05:30:28;;;;;;;21.07;7.23;;;-1.40;99.90;;;;;;5090714;28;20508;-45
2022/01/11 05:32:55;;;;;;;20.43;7.57;;;-1.30;99.90;;;;;;5089091;28;20213;-43
2022/01/11 05:35:22;;;;;;;19.43;7.40;;;-1.30;99.90;;;;;;5089053;28;20445;-44
2022/01/11 05:37:48;;;;;;;16.70;8.20;;;-1.30;99.90;;;;;;5090272;28;20432;-45
2022/01/11 05:40:15;;;;;;;18.27;6.60;;;-1.30;99.90;;;;;;5090119;28;20781;-45
2022/01/11 05:42:42;;;;;;;18.30;5.20;;;-1.30;99.90;;;;;;5089994;28;20425;-45
2022/01/11 05:45:09;;;;;;;15.93;6.53;;;-1.30;99.90;;;;;;5095400;28;20483;-44
2022/01/11 05:47:34;;;;;;;10.20;5.10;;;-1.40;99.90;;;;;;5090466;28;20486;-45
2022/01/11 05:50:03;;;;;;;23.13;6.47;;;-1.40;99.90;;;;;;5090493;28;20915;-43
2022/01/11 05:52:29;;;;;;;23.53;5.67;;;-1.40;99.90;;;;;;5090767;28;20198;-43
2022/01/11 05:54:55;;;;;;;13.33;6.87;;;-1.40;99.90;;;;;;5090373;28;20429;-42
2022/01/11 05:57:21;;;;;;;14.27;7.10;;;-1.40;99.90;;;;;;5079633;28;20277;-43
2022/01/11 05:59:47;;;;;;;12.17;7.23;;;-1.40;99.90;;;;;;5076928;28;20187;-45
2022/01/11 06:02:12;;;;;;;35.27;7.90;;;-1.40;99.90;;;;;;5058362;28;20426;-44
2022/01/11 06:04:38;;;;;;;16.37;6.77;;;-1.40;99.90;;;;;;5076637;28;20199;-44
2022/01/11 06:07:03;;;;;;;12.20;6.27;;;-1.40;99.90;;;;;;5076434;28;20206;-43
2022/01/11 06:09:29;;;;;;;14.07;6.50;;;-1.50;99.90;;;;;;5077244;28;20188;-44
2022/01/11 06:11:56;;;;;;;13.97;6.60;;;-1.50;99.90;;;;;;5076525;28;20171;-45
2022/01/11 06:14:22;;;;;;;12.77;6.23;;;-1.50;99.90;;;;;;5076605;28;20180;-43
2022/01/11 06:16:49;;;;;;;25.77;8.00;;;-1.50;99.90;;;;;;5076020;28;20494;-43
2022/01/11 06:19:14;;;;;;;18.53;7.10;;;-1.50;99.90;;;;;;5075428;28;20936;-44
2022/01/11 06:21:40;;;;;;;13.77;5.90;;;-1.50;99.90;;;;;;5076624;28;20409;-44
2022/01/11 06:24:07;;;;;;;13.40;7.03;;;-1.50;99.90;;;;;;5076961;28;20209;-44
2022/01/11 06:26:33;;;;;;;11.67;6.60;;;-1.50;99.90;;;;;;5076495;28;20577;-45
2022/01/11 06:29:01;;;;;;;4.43;2.30;;;-1.50;99.90;;;;;;5076259;28;20471;-45
2022/01/11 06:31:27;;;;;;;27.73;8.27;;;-1.50;99.90;;;;;;5076341;28;20406;-44
2022/01/11 06:33:53;;;;;;;25.43;7.20;;;-1.50;99.90;;;;;;5074995;28;20425;-43
2022/01/11 06:36:19;;;;;;;33.77;6.17;;;-1.50;99.90;;;;;;5075835;28;20449;-44
2022/01/11 06:38:45;;;;;;;21.40;6.93;;;-1.50;99.90;;;;;;5086336;28;20190;-44
2022/01/11 06:41:11;;;;;;;41.37;7.63;;;-1.50;99.90;;;;;;5094956;28;20206;-45
2022/01/11 06:43:38;;;;;;;33.50;8.73;;;-1.50;99.90;;;;;;5078364;28;20410;-44
2022/01/11 06:46:04;;;;;;;29.37;7.80;;;-1.50;99.90;;;;;;5075905;28;20478;-46
2022/01/11 06:48:30;;;;;;;20.43;8.43;;;-1.50;99.90;;;;;;5074547;28;20925;-45
2022/01/11 06:50:56;;;;;;;17.93;8.33;;;-1.50;99.90;;;;;;5075400;28;20421;-45
2022/01/11 06:53:21;;;;;;;14.23;8.20;;;-1.50;99.90;;;;;;5075539;28;20244;-43
2022/01/11 06:55:47;;;;;;;27.67;7.63;;;-1.50;99.90;;;;;;5074154;28;20294;-44
2022/01/11 06:58:13;;;;;;;13.73;7.77;;;-1.50;99.90;;;;;;5075646;28;20183;-46
2022/01/11 07:00:39;;;;;;;16.83;7.97;;;-1.50;99.90;;;;;;5075704;28;20194;-43
2022/01/11 07:03:05;;;;;;;23.47;8.53;;;-1.50;99.90;;;;;;5075344;28;20414;-43
2022/01/11 07:05:31;;;;;;;13.63;7.30;;;-1.50;99.90;;;;;;5074852;28;20473;-42
2022/01/11 07:07:56;;;;;;;27.00;9.67;;;-1.50;99.90;;;;;;5074429;28;20245;-44
2022/01/11 07:10:22;;;;;;;28.60;11.77;;;-1.50;99.90;;;;;;5074668;28;20175;-44
2022/01/11 07:12:48;;;;;;;22.83;9.60;;;-1.50;99.90;;;;;;5075200;28;20232;-44
2022/01/11 07:15:14;;;;;;;17.03;7.97;;;-1.50;99.90;;;;;;5075131;28;20561;-44
2022/01/11 07:17:41;;;;;;;21.97;10.20;;;-1.50;99.90;;;;;;5073384;28;20187;-44
2022/01/11 07:20:08;;;;;;;29.87;10.13;;;-1.50;99.90;;;;;;5074833;28;20426;-44
2022/01/11 07:22:37;;;;;;;13.83;7.37;;;-1.50;99.90;;;;;;5075130;28;20421;-44
2022/01/11 07:25:04;;;;;;;27.30;11.73;;;-1.50;99.90;;;;;;5073089;28;20465;-44
2022/01/11 07:27:31;;;;;;;19.90;8.70;;;-1.50;99.90;;;;;;5074969;28;20440;-43
2022/01/11 07:29:57;;;;;;;19.67;8.83;;;-1.50;99.90;;;;;;5073554;28;20791;-44
2022/01/11 07:32:23;;;;;;;17.90;8.43;;;-1.50;99.90;;;;;;5074455;28;20413;-43
2022/01/11 07:34:49;;;;;;;18.87;7.97;;;-1.50;99.90;;;;;;5073228;28;20646;-41
2022/01/11 07:37:14;;;;;;;14.00;8.43;;;-1.50;99.90;;;;;;5074645;28;20270;-43
2022/01/11 07:39:40;;;;;;;20.77;9.57;;;-1.50;99.90;;;;;;5075039;28;20186;-44
2022/01/11 07:42:06;;;;;;;22.63;9.43;;;-1.50;99.90;;;;;;5074963;28;20204;-43
2022/01/11 07:44:31;;;;;;;19.53;9.60;;;-1.50;99.90;;;;;;5074378;28;20203;-43
2022/01/11 07:46:57;;;;;;;12.67;7.63;;;-1.50;99.90;;;;;;5074341;28;20710;-42
2022/01/11 07:49:23;;;;;;;30.80;9.97;;;-1.50;99.90;;;;;;5074433;28;20202;-41
2022/01/11 07:51:49;;;;;;;17.20;9.30;;;-1.50;99.90;;;;;;5073020;28;20212;-42
2022/01/11 07:54:15;;;;;;;23.03;10.60;;;-1.50;99.90;;;;;;5074305;28;20229;-44
2022/01/11 07:56:40;;;;;;;19.03;10.73;;;-1.50;99.90;;;;;;5072909;28;20623;-44
2022/01/11 07:59:06;;;;;;;19.07;9.30;;;-1.50;99.90;;;;;;5074006;28;20259;-44
2022/01/11 08:01:32;;;;;;;20.17;10.47;;;-1.40;99.90;;;;;;5074334;28;20194;-43
2022/01/11 08:03:59;;;;;;;20.50;10.37;;;-1.40;99.90;;;;;;5074167;28;20175;-46
2022/01/11 08:06:26;;;;;;;14.33;7.27;;;-1.40;99.90;;;;;;5073833;28;20219;-44
2022/01/11 08:08:51;;;;;;;17.10;9.33;;;-1.40;99.90;;;;;;5073741;28;20420;-44
2022/01/11 08:11:17;;;;;;;21.97;10.37;;;-1.40;99.90;;;;;;5074460;28;20418;-48
2022/01/11 08:13:43;;;;;;;17.37;8.60;;;-1.40;99.90;;;;;;5073897;28;20175;-47
2022/01/11 08:16:08;;;;;;;20.83;10.53;;;-1.40;99.90;;;;;;5073670;28;20207;-47
2022/01/11 08:18:34;;;;;;;17.37;9.00;;;-1.40;99.90;;;;;;5073711;28;20179;-47
2022/01/11 08:21:00;;;;;;;22.13;9.90;;;-1.40;99.90;;;;;;5073471;28;20175;-47
2022/01/11 08:23:26;;;;;;;25.70;10.60;;;-1.40;99.90;;;;;;5073934;28;20605;-45
2022/01/11 08:25:51;;;;;;;17.40;9.40;;;-1.40;99.90;;;;;;5073675;28;20707;-48
2022/01/11 08:28:17;;;;;;;20.37;9.57;;;-1.40;99.90;;;;;;5073557;28;20175;-48
2022/01/11 08:30:42;;;;;;;21.00;10.17;;;-1.40;99.90;;;;;;5073815;28;20202;-48
2022/01/11 08:33:09;;;;;;;25.17;11.70;;;-1.30;99.90;;;;;;5073642;28;20713;-48
2022/01/11 08:35:36;;;;;;;17.50;9.27;;;-1.30;99.90;;;;;;5073648;28;20281;-48
2022/01/11 08:38:02;;;;;;;23.27;10.77;;;-1.30;99.90;;;;;;5073564;28;20504;-49
2022/01/11 08:40:28;;;;;;;26.07;10.97;;;-1.30;99.90;;;;;;5073444;28;20459;-48
2022/01/11 08:42:54;;;;;;;24.90;9.27;;;-1.30;99.90;;;;;;5073463;28;20425;-48
2022/01/11 08:45:20;;;;;;;16.73;9.77;;;-1.20;99.90;;;;;;5072006;28;20477;-47
2022/01/11 08:47:46;;;;;;;18.03;9.63;;;-1.20;99.90;;;;;;5073911;28;20258;-48
2022/01/11 08:50:13;;;;;;;19.60;9.23;;;-1.20;99.90;;;;;;5073393;28;20836;-47
2022/01/11 08:52:40;;;;;;;22.13;10.90;;;-1.20;99.90;;;;;;5073541;28;20228;-47
2022/01/11 08:55:07;;;;;;;22.97;10.60;;;-1.20;99.90;;;;;;5073447;28;20442;-48
2022/01/11 08:57:33;;;;;;;24.00;10.37;;;-1.10;99.90;;;;;;5073517;28;20786;-48
2022/01/11 09:00:02;;;;;;;22.43;10.70;;;-1.10;99.90;;;;;;5072413;28;20428;-49
2022/01/11 09:02:27;;;;;;;20.97;10.63;;;-1.10;99.90;;;;;;5073644;28;20432;-47
2022/01/11 09:04:53;;;;;;;25.43;10.90;;;-1.10;99.90;;;;;;5073697;28;20457;-47
2022/01/11 09:07:19;;;;;;;21.20;11.20;;;-1.00;99.90;;;;;;5073164;28;20639;-49
2022/01/11 09:09:45;;;;;;;23.53;10.30;;;-1.00;99.90;;;;;;5073779;28;20262;-48
2022/01/11 09:12:13;;;;;;;23.70;11.80;;;-0.90;99.90;;;;;;5073656;28;20921;-47
2022/01/11 09:14:39;;;;;;;23.33;11.17;;;-0.90;99.90;;;;;;5073416;28;20172;-48
2022/01/11 09:17:06;;;;;;;22.67;10.87;;;-0.90;99.90;;;;;;5073689;28;20425;-47
2022/01/11 09:19:32;;;;;;;24.97;12.10;;;-0.80;99.90;;;;;;5072383;28;20425;-47
2022/01/11 09:21:58;;;;;;;28.53;11.70;;;-0.80;99.90;;;;;;5073413;28;20410;-48
2022/01/11 09:24:29;;;;;;;28.23;13.00;;;-0.70;99.90;;;;;;5074372;28;20750;-47
2022/01/11 09:26:56;;;;;;;24.30;11.67;;;-0.60;99.90;;;;;;5073155;28;20838;-49
2022/01/11 09:29:22;;;;;;;23.60;12.37;;;-0.60;99.90;;;;;;5081345;28;20421;-47
2022/01/11 09:31:48;;;;;;;29.97;11.70;;;-0.60;99.90;;;;;;5093795;28;20417;-48
2022/01/11 09:34:14;;;;;;;25.87;11.20;;;-0.40;99.90;;;;;;5081969;28;20184;-46
2022/01/11 09:36:40;;;;;;;27.73;12.00;;;-0.40;99.90;;;;;;5077006;28;20235;-48
2022/01/11 09:39:06;;;;;;;22.03;10.23;;;-0.30;99.90;;;;;;5076890;28;20211;-47
2022/01/11 09:41:33;;;;;;;24.83;11.27;;;-0.20;99.90;;;;;;5076719;28;20452;-46
2022/01/11 09:43:59;;;;;;;20.63;9.93;;;-0.10;99.90;;;;;;5076386;28;20187;-46
2022/01/11 09:46:24;;;;;;;20.73;11.10;;;-0.10;99.90;;;;;;5076107;28;20473;-45
2022/01/11 09:48:50;;;;;;;23.67;11.00;;;0.00;99.90;;;;;;5076909;28;20427;-44
2022/01/11 09:51:16;;;;;;;22.07;10.23;;;0.00;99.90;;;;;;5076319;28;20183;-43
2022/01/11 09:53:42;;;;;;;20.63;11.03;;;0.10;99.90;;;;;;5076290;28;20176;-43
2022/01/11 09:56:09;;;;;;;20.37;9.53;;;0.20;99.90;;;;;;5076476;28;20207;-44
2022/01/11 09:58:35;;;;;;;22.83;10.17;;;0.30;99.90;;;;;;5076275;28;20587;-43
2022/01/11 10:01:02;;;;;;;22.27;10.97;;;0.30;99.90;;;;;;5076080;28;20418;-44
2022/01/11 10:03:28;;;;;;;16.13;7.60;;;0.30;99.90;;;;;;5076637;28;20505;-44
2022/01/11 10:05:54;;;;;;;22.57;10.60;;;0.40;99.90;;;;;;5075949;28;20623;-43
2022/01/11 10:08:28;;;;;;;20.97;9.57;;;0.50;99.90;;;;;;5076225;28;20191;-43
2022/01/11 10:10:57;;;;;;;19.40;9.90;;;0.50;99.90;;;;;;5077566;28;20179;-44
2022/01/11 10:13:37;;;;;;;21.30;11.10;;;0.50;99.90;;;;;;5076523;28;20432;-44
2022/01/11 10:16:25;;;;;;;22.57;10.17;;;0.60;99.90;;;;;;5076635;28;20433;-43
2022/01/11 10:18:52;;;;;;;22.23;11.17;;;0.70;99.90;;;;;;5076164;28;20414;-43
2022/01/11 10:21:41;;;;;;;22.30;11.03;;;0.80;99.90;;;;;;5076031;28;20418;-43
2022/01/11 10:24:23;;;;;;;22.73;10.63;;;0.80;99.90;;;;;;5075199;28;20414;-42
2022/01/11 10:26:50;;;;;;;24.57;10.97;;;0.90;99.90;;;;;;5075695;28;20446;-43
2022/01/11 10:29:37;;;;;;;16.47;8.77;;;1.00;99.90;;;;;;5075755;28;20426;-43
2022/01/11 10:32:36;;;;;;;21.97;10.17;;;1.00;99.90;;;;;;5076071;28;20387;-44
2022/01/11 10:35:07;;;;;;;23.60;11.40;;;1.00;99.90;;;;;;5075088;28;20525;-45
2022/01/11 10:37:44;;;;;;;22.63;11.83;;;1.10;99.90;;;;;;5075367;28;20930;-42
2022/01/11 10:40:16;;;;;;;22.13;11.47;;;1.10;99.90;;;;;;5075347;28;20411;-44
2022/01/11 10:43:06;;;;;;;25.63;11.77;;;1.20;99.90;;;;;;5075785;28;20406;-44
2022/01/11 10:45:34;;;;;;;24.70;13.13;;;1.20;99.90;;;;;;5075200;28;20510;-44
2022/01/11 10:48:09;;;;;;;28.97;15.00;;;1.40;99.90;;;;;;5075625;28;20420;-43
2022/01/11 10:50:37;;;;;;;22.07;12.10;;;1.40;99.90;;;;;;5075539;28;20401;-44
2022/01/11 10:53:38;;;;;;;24.73;13.53;;;1.40;99.90;;;;;;5075586;28;20525;-43
2022/01/11 10:56:06;;;;;;;21.40;11.60;;;1.50;99.90;;;;;;5074418;28;20452;-45
2022/01/11 10:58:35;;;;;;;24.07;12.93;;;1.50;99.90;;;;;;5075012;28;20270;-44
2022/01/11 11:01:02;;;;;;;24.17;13.17;;;1.50;99.90;;;;;;5075578;28;20273;-46
2022/01/11 11:03:30;;;;;;;23.27;12.40;;;1.60;99.90;;;;;;5074969;28;20290;-46
2022/01/11 11:06:05;;;;;;;21.80;11.53;;;1.60;99.90;;;;;;5075130;28;20210;-46
2022/01/11 11:08:39;;;;;;;22.47;12.37;;;1.70;99.90;;;;;;5074921;28;20578;-46
2022/01/11 11:11:07;;;;;;;22.53;12.40;;;1.70;99.90;;;;;;5075043;28;20168;-47
2022/01/11 11:13:42;;;;;;;24.20;12.40;;;1.80;99.90;;;;;;5075004;28;20229;-44
2022/01/11 11:16:12;;;;;;;25.77;13.37;;;1.80;99.90;;;;;;5074406;28;20245;-48
2022/01/11 11:18:49;;;;;;;27.40;13.03;;;1.90;99.90;;;;;;5074791;28;20175;-47
2022/01/11 11:21:27;;;;;;;24.87;12.43;;;1.90;99.90;;;;;;5073441;28;20646;-47
2022/01/11 11:23:55;;;;;;;23.93;11.70;;;2.00;99.90;;;;;;5074706;28;20205;-46
2022/01/11 11:26:23;;;;;;;21.77;12.37;;;2.10;99.90;;;;;;5074837;28;20218;-45
2022/01/11 11:28:49;;;;;;;22.33;12.10;;;2.20;99.90;;;;;;5074358;28;20182;-47
